sensor_id;sensor_type;location;lat;lon;timestamp;P1;durP1;ratioP1;P2;durP2;ratioP2
3293;SDS011;1659;51.470;6.770;2022-12-07T00:00:47;32.30;;;19.10;;
3293;SDS011;1659;51.470;6.770;2022-12-07T00:03:14;33.10;;;19.33;;
3293;SDS011;1659;51.470;6.770;2022-12-07T00:05:40;33.77;;;19.97;;
3293;SDS011;1659;51.470;6.770;2022-12-07T00:08:07;27.00;;;19.70;;
3293;SDS011;1659;51.470;6.770;2022-12-07T00:10:33;34.07;;;20.63;;
3293;SDS011;1659;51.470;6.770;2022-12-07T00:13:02;29.07;;;20.27;;
3293;SDS011;1659;51.470;6.770;2022-12-07T00:15:28;32.50;;;21.10;;
3293;SDS011;1659;51.470;6.770;2022-12-07T00:17:55;33.87;;;22.57;;
3293;SDS011;1659;51.470;6.770;2022-12-07T00:20:21;39.00;;;20.50;;
3293;SDS011;1659;51.470;6.770;2022-12-07T00:22:48;33.13;;;21.97;;
3293;SDS011;1659;51.470;6.770;2022-12-07T00:25:14;34.67;;;21.50;;
3293;SDS011;1659;51.470;6.770;2022-12-07T00:27:41;32.27;;;20.53;;
3293;SDS011;1659;51.470;6.770;2022-12-07T00:30:09;32.03;;;20.67;;
3293;SDS011;1659;51.470;6.770;2022-12-07T00:32:36;34.37;;;21.73;;
3293;SDS011;1659;51.470;6.770;2022-12-07T00:35:02;36.40;;;22.20;;
3293;SDS011;1659;51.470;6.770;2022-12-07T00:37:29;34.63;;;22.60;;
3293;SDS011;1659;51.470;6.770;2022-12-07T00:39:56;33.97;;;21.37;;
3293;SDS011;1659;51.470;6.770;2022-12-07T00:42:22;32.50;;;21.50;;
3293;SDS011;1659;51.470;6.770;2022-12-07T00:44:49;38.03;;;22.13;;
3293;SDS011;1659;51.470;6.770;2022-12-07T00:47:17;40.27;;;21.90;;
3293;SDS011;1659;51.470;6.770;2022-12-07T00:49:43;34.00;;;21.30;;
3293;SDS011;1659;51.470;6.770;2022-12-07T00:52:10;31.53;;;21.13;;
3293;SDS011;1659;51.470;6.770;2022-12-07T00:54:36;38.47;;;21.47;;
3293;SDS011;1659;51.470;6.770;2022-12-07T00:57:03;32.40;;;22.27;;
3293;SDS011;1659;51.470;6.770;2022-12-07T00:59:29;33.20;;;20.83;;
3293;SDS011;1659;51.470;6.770;2022-12-07T01:01:56;37.20;;;21.97;;
3293;SDS011;1659;51.470;6.770;2022-12-07T01:04:24;36.43;;;21.13;;
3293;SDS011;1659;51.470;6.770;2022-12-07T01:06:50;32.20;;;20.70;;
3293;SDS011;1659;51.470;6.770;2022-12-07T01:09:17;33.40;;;22.03;;
3293;SDS011;1659;51.470;6.770;2022-12-07T01:11:43;38.63;;;22.13;;
3293;SDS011;1659;51.470;6.770;2022-12-07T01:14:10;36.47;;;21.23;;
3293;SDS011;1659;51.470;6.770;2022-12-07T01:16:38;36.73;;;21.27;;
3293;SDS011;1659;51.470;6.770;2022-12-07T01:19:05;40.43;;;22.10;;
3293;SDS011;1659;51.470;6.770;2022-12-07T01:21:33;32.97;;;21.23;;
3293;SDS011;1659;51.470;6.770;2022-12-07T01:24:02;32.83;;;21.07;;
3293;SDS011;1659;51.470;6.770;2022-12-07T01:26:30;35.10;;;22.73;;
3293;SDS011;1659;51.470;6.770;2022-12-07T01:28:57;34.50;;;21.70;;
3293;SDS011;1659;51.470;6.770;2022-12-07T01:31:26;37.73;;;22.20;;
3293;SDS011;1659;51.470;6.770;2022-12-07T01:33:54;43.00;;;21.70;;
3293;SDS011;1659;51.470;6.770;2022-12-07T01:36:22;40.30;;;21.77;;
3293;SDS011;1659;51.470;6.770;2022-12-07T01:38:53;32.73;;;21.30;;
3293;SDS011;1659;51.470;6.770;2022-12-07T01:41:21;39.03;;;21.23;;
3293;SDS011;1659;51.470;6.770;2022-12-07T01:44:10;35.80;;;22.13;;
3293;SDS011;1659;51.470;6.770;2022-12-07T01:46:40;30.53;;;19.43;;
3293;SDS011;1659;51.470;6.770;2022-12-07T01:49:08;33.73;;;20.50;;
3293;SDS011;1659;51.470;6.770;2022-12-07T01:51:38;43.07;;;23.23;;
3293;SDS011;1659;51.470;6.770;2022-12-07T01:54:09;37.63;;;20.13;;
3293;SDS011;1659;51.470;6.770;2022-12-07T01:56:38;38.47;;;22.40;;
3293;SDS011;1659;51.470;6.770;2022-12-07T01:59:07;33.63;;;21.70;;
3293;SDS011;1659;51.470;6.770;2022-12-07T02:01:34;36.37;;;21.37;;
3293;SDS011;1659;51.470;6.770;2022-12-07T02:04:00;33.17;;;20.70;;
3293;SDS011;1659;51.470;6.770;2022-12-07T02:06:28;35.83;;;21.00;;
3293;SDS011;1659;51.470;6.770;2022-12-07T02:08:55;36.03;;;20.37;;
3293;SDS011;1659;51.470;6.770;2022-12-07T02:11:23;35.57;;;20.53;;
3293;SDS011;1659;51.470;6.770;2022-12-07T02:13:49;37.07;;;21.87;;
3293;SDS011;1659;51.470;6.770;2022-12-07T02:16:21;39.40;;;22.57;;
3293;SDS011;1659;51.470;6.770;2022-12-07T02:18:57;42.33;;;22.03;;
3293;SDS011;1659;51.470;6.770;2022-12-07T02:21:44;37.17;;;20.60;;
3293;SDS011;1659;51.470;6.770;2022-12-07T02:24:31;36.33;;;21.87;;
3293;SDS011;1659;51.470;6.770;2022-12-07T02:27:19;33.23;;;21.10;;
3293;SDS011;1659;51.470;6.770;2022-12-07T02:30:03;42.60;;;21.10;;
3293;SDS011;1659;51.470;6.770;2022-12-07T02:32:33;34.97;;;22.00;;
3293;SDS011;1659;51.470;6.770;2022-12-07T02:35:08;43.53;;;21.77;;
3293;SDS011;1659;51.470;6.770;2022-12-07T02:37:39;42.90;;;24.03;;
3293;SDS011;1659;51.470;6.770;2022-12-07T02:40:13;42.70;;;22.33;;
3293;SDS011;1659;51.470;6.770;2022-12-07T02:42:46;37.93;;;22.17;;
3293;SDS011;1659;51.470;6.770;2022-12-07T02:45:17;36.07;;;20.30;;
3293;SDS011;1659;51.470;6.770;2022-12-07T02:47:47;38.33;;;21.93;;
3293;SDS011;1659;51.470;6.770;2022-12-07T02:50:17;44.43;;;21.63;;
3293;SDS011;1659;51.470;6.770;2022-12-07T02:52:44;35.13;;;21.77;;
3293;SDS011;1659;51.470;6.770;2022-12-07T02:55:11;37.70;;;21.73;;
3293;SDS011;1659;51.470;6.770;2022-12-07T02:57:42;40.93;;;22.20;;
3293;SDS011;1659;51.470;6.770;2022-12-07T03:00:21;33.83;;;20.33;;
3293;SDS011;1659;51.470;6.770;2022-12-07T03:02:50;37.30;;;21.43;;
3293;SDS011;1659;51.470;6.770;2022-12-07T03:05:26;36.43;;;21.80;;
3293;SDS011;1659;51.470;6.770;2022-12-07T03:08:05;35.70;;;21.50;;
3293;SDS011;1659;51.470;6.770;2022-12-07T03:10:39;36.73;;;21.70;;
3293;SDS011;1659;51.470;6.770;2022-12-07T03:13:14;34.40;;;22.23;;
3293;SDS011;1659;51.470;6.770;2022-12-07T03:15:49;38.60;;;20.80;;
3293;SDS011;1659;51.470;6.770;2022-12-07T03:18:24;34.83;;;19.60;;
3293;SDS011;1659;51.470;6.770;2022-12-07T03:20:55;35.33;;;22.27;;
3293;SDS011;1659;51.470;6.770;2022-12-07T03:23:24;36.07;;;22.00;;
3293;SDS011;1659;51.470;6.770;2022-12-07T03:25:54;42.80;;;22.03;;
3293;SDS011;1659;51.470;6.770;2022-12-07T03:28:24;38.50;;;20.77;;
3293;SDS011;1659;51.470;6.770;2022-12-07T03:30:57;44.00;;;22.77;;
3293;SDS011;1659;51.470;6.770;2022-12-07T03:33:28;43.73;;;20.50;;
3293;SDS011;1659;51.470;6.770;2022-12-07T03:35:58;42.33;;;21.20;;
3293;SDS011;1659;51.470;6.770;2022-12-07T03:38:31;39.23;;;22.23;;
3293;SDS011;1659;51.470;6.770;2022-12-07T03:41:04;37.27;;;21.97;;
3293;SDS011;1659;51.470;6.770;2022-12-07T03:43:35;40.03;;;22.63;;
3293;SDS011;1659;51.470;6.770;2022-12-07T03:46:06;39.27;;;22.27;;
3293;SDS011;1659;51.470;6.770;2022-12-07T03:48:41;41.03;;;22.57;;
3293;SDS011;1659;51.470;6.770;2022-12-07T03:51:17;39.50;;;22.60;;
3293;SDS011;1659;51.470;6.770;2022-12-07T03:53:48;42.30;;;24.33;;
3293;SDS011;1659;51.470;6.770;2022-12-07T03:56:21;43.50;;;22.33;;
3293;SDS011;1659;51.470;6.770;2022-12-07T03:58:48;48.70;;;23.90;;
3293;SDS011;1659;51.470;6.770;2022-12-07T04:01:18;45.77;;;24.90;;
3293;SDS011;1659;51.470;6.770;2022-12-07T04:03:45;43.70;;;23.97;;
3293;SDS011;1659;51.470;6.770;2022-12-07T04:06:11;47.67;;;22.40;;
3293;SDS011;1659;51.470;6.770;2022-12-07T04:08:38;44.47;;;23.60;;
3293;SDS011;1659;51.470;6.770;2022-12-07T04:11:04;39.77;;;23.83;;
3293;SDS011;1659;51.470;6.770;2022-12-07T04:13:31;46.30;;;24.10;;
3293;SDS011;1659;51.470;6.770;2022-12-07T04:16:19;39.80;;;22.20;;
3293;SDS011;1659;51.470;6.770;2022-12-07T04:18:46;45.03;;;22.30;;
3293;SDS011;1659;51.470;6.770;2022-12-07T04:21:12;46.83;;;23.20;;
3293;SDS011;1659;51.470;6.770;2022-12-07T04:23:39;39.13;;;22.10;;
3293;SDS011;1659;51.470;6.770;2022-12-07T04:26:06;40.13;;;22.97;;
3293;SDS011;1659;51.470;6.770;2022-12-07T04:28:32;35.17;;;21.03;;
3293;SDS011;1659;51.470;6.770;2022-12-07T04:30:59;40.97;;;23.07;;
3293;SDS011;1659;51.470;6.770;2022-12-07T04:33:26;37.00;;;20.57;;
3293;SDS011;1659;51.470;6.770;2022-12-07T04:35:53;43.87;;;22.23;;
3293;SDS011;1659;51.470;6.770;2022-12-07T04:38:20;39.60;;;21.77;;
3293;SDS011;1659;51.470;6.770;2022-12-07T04:40:46;45.50;;;23.53;;
3293;SDS011;1659;51.470;6.770;2022-12-07T04:43:13;41.33;;;23.27;;
3293;SDS011;1659;51.470;6.770;2022-12-07T04:45:39;42.33;;;23.33;;
3293;SDS011;1659;51.470;6.770;2022-12-07T04:48:06;37.10;;;21.40;;
3293;SDS011;1659;51.470;6.770;2022-12-07T04:50:34;40.53;;;21.10;;
3293;SDS011;1659;51.470;6.770;2022-12-07T04:53:03;38.50;;;21.93;;
3293;SDS011;1659;51.470;6.770;2022-12-07T04:55:29;42.53;;;21.30;;
3293;SDS011;1659;51.470;6.770;2022-12-07T04:57:56;38.67;;;22.60;;
3293;SDS011;1659;51.470;6.770;2022-12-07T05:00:22;38.07;;;22.00;;
3293;SDS011;1659;51.470;6.770;2022-12-07T05:02:49;41.50;;;21.73;;
3293;SDS011;1659;51.470;6.770;2022-12-07T05:05:15;44.30;;;22.57;;
3293;SDS011;1659;51.470;6.770;2022-12-07T05:07:43;38.57;;;20.13;;
3293;SDS011;1659;51.470;6.770;2022-12-07T05:10:10;44.20;;;22.20;;
3293;SDS011;1659;51.470;6.770;2022-12-07T05:12:36;45.47;;;23.60;;
3293;SDS011;1659;51.470;6.770;2022-12-07T05:15:03;34.40;;;21.33;;
3293;SDS011;1659;51.470;6.770;2022-12-07T05:17:31;41.27;;;20.53;;
3293;SDS011;1659;51.470;6.770;2022-12-07T05:19:57;38.93;;;20.90;;
3293;SDS011;1659;51.470;6.770;2022-12-07T05:22:24;34.37;;;20.43;;
3293;SDS011;1659;51.470;6.770;2022-12-07T05:24:54;38.27;;;20.17;;
3293;SDS011;1659;51.470;6.770;2022-12-07T05:27:20;30.93;;;18.30;;
3293;SDS011;1659;51.470;6.770;2022-12-07T05:29:47;38.90;;;18.60;;
3293;SDS011;1659;51.470;6.770;2022-12-07T05:32:15;40.30;;;19.40;;
3293;SDS011;1659;51.470;6.770;2022-12-07T05:34:42;29.23;;;17.40;;
3293;SDS011;1659;51.470;6.770;2022-12-07T05:37:08;38.30;;;18.93;;
3293;SDS011;1659;51.470;6.770;2022-12-07T05:39:35;35.23;;;17.23;;
3293;SDS011;1659;51.470;6.770;2022-12-07T05:42:04;34.30;;;17.93;;
3293;SDS011;1659;51.470;6.770;2022-12-07T05:44:40;26.20;;;16.77;;
3293;SDS011;1659;51.470;6.770;2022-12-07T05:47:07;28.30;;;17.03;;
3293;SDS011;1659;51.470;6.770;2022-12-07T05:49:34;27.40;;;15.97;;
3293;SDS011;1659;51.470;6.770;2022-12-07T05:52:00;26.70;;;16.40;;
3293;SDS011;1659;51.470;6.770;2022-12-07T05:54:27;33.77;;;17.23;;
3293;SDS011;1659;51.470;6.770;2022-12-07T05:56:54;37.07;;;17.77;;
3293;SDS011;1659;51.470;6.770;2022-12-07T05:59:22;29.60;;;16.00;;
3293;SDS011;1659;51.470;6.770;2022-12-07T06:01:48;27.80;;;16.27;;
3293;SDS011;1659;51.470;6.770;2022-12-07T06:04:15;23.17;;;14.70;;
3293;SDS011;1659;51.470;6.770;2022-12-07T06:06:42;30.20;;;16.43;;
3293;SDS011;1659;51.470;6.770;2022-12-07T06:09:08;28.57;;;14.90;;
3293;SDS011;1659;51.470;6.770;2022-12-07T06:11:35;28.63;;;15.13;;
3293;SDS011;1659;51.470;6.770;2022-12-07T06:14:19;27.30;;;15.10;;
3293;SDS011;1659;51.470;6.770;2022-12-07T06:16:47;23.20;;;14.50;;
3293;SDS011;1659;51.470;6.770;2022-12-07T06:19:14;26.47;;;14.67;;
3293;SDS011;1659;51.470;6.770;2022-12-07T06:21:40;25.53;;;15.57;;
3293;SDS011;1659;51.470;6.770;2022-12-07T06:24:08;29.50;;;14.93;;
3293;SDS011;1659;51.470;6.770;2022-12-07T06:26:36;25.10;;;14.93;;
3293;SDS011;1659;51.470;6.770;2022-12-07T06:29:03;32.87;;;15.53;;
3293;SDS011;1659;51.470;6.770;2022-12-07T06:31:30;23.93;;;14.83;;
3293;SDS011;1659;51.470;6.770;2022-12-07T06:33:58;25.30;;;14.27;;
3293;SDS011;1659;51.470;6.770;2022-12-07T06:36:25;24.03;;;14.23;;
3293;SDS011;1659;51.470;6.770;2022-12-07T06:38:52;37.67;;;14.93;;
3293;SDS011;1659;51.470;6.770;2022-12-07T06:41:18;23.37;;;14.33;;
3293;SDS011;1659;51.470;6.770;2022-12-07T06:43:45;28.43;;;14.20;;
3293;SDS011;1659;51.470;6.770;2022-12-07T06:46:12;38.73;;;14.87;;
3293;SDS011;1659;51.470;6.770;2022-12-07T06:48:39;28.23;;;15.27;;
3293;SDS011;1659;51.470;6.770;2022-12-07T06:51:07;27.33;;;15.43;;
3293;SDS011;1659;51.470;6.770;2022-12-07T06:53:34;30.17;;;16.30;;
3293;SDS011;1659;51.470;6.770;2022-12-07T06:56:01;31.67;;;15.87;;
3293;SDS011;1659;51.470;6.770;2022-12-07T06:58:27;22.17;;;14.43;;
3293;SDS011;1659;51.470;6.770;2022-12-07T07:00:54;23.93;;;15.80;;
3293;SDS011;1659;51.470;6.770;2022-12-07T07:03:21;25.90;;;14.53;;
3293;SDS011;1659;51.470;6.770;2022-12-07T07:05:47;27.47;;;16.50;;
3293;SDS011;1659;51.470;6.770;2022-12-07T07:08:15;27.50;;;15.20;;
3293;SDS011;1659;51.470;6.770;2022-12-07T07:10:42;24.63;;;15.07;;
3293;SDS011;1659;51.470;6.770;2022-12-07T07:13:08;32.27;;;15.63;;
3293;SDS011;1659;51.470;6.770;2022-12-07T07:15:37;26.07;;;15.37;;
3293;SDS011;1659;51.470;6.770;2022-12-07T07:18:04;29.03;;;17.43;;
3293;SDS011;1659;51.470;6.770;2022-12-07T07:20:30;26.83;;;14.57;;
3293;SDS011;1659;51.470;6.770;2022-12-07T07:22:57;27.93;;;13.87;;
3293;SDS011;1659;51.470;6.770;2022-12-07T07:25:25;25.87;;;13.47;;
3293;SDS011;1659;51.470;6.770;2022-12-07T07:27:51;30.00;;;14.30;;
3293;SDS011;1659;51.470;6.770;2022-12-07T07:30:18;26.27;;;14.80;;
3293;SDS011;1659;51.470;6.770;2022-12-07T07:32:45;29.87;;;15.57;;
3293;SDS011;1659;51.470;6.770;2022-12-07T07:35:11;27.20;;;15.20;;
3293;SDS011;1659;51.470;6.770;2022-12-07T07:37:39;25.70;;;15.73;;
3293;SDS011;1659;51.470;6.770;2022-12-07T07:40:06;26.40;;;17.20;;
3293;SDS011;1659;51.470;6.770;2022-12-07T07:42:34;29.37;;;14.50;;
3293;SDS011;1659;51.470;6.770;2022-12-07T07:45:01;30.67;;;15.93;;
3293;SDS011;1659;51.470;6.770;2022-12-07T07:47:28;26.27;;;13.37;;
3293;SDS011;1659;51.470;6.770;2022-12-07T07:49:54;25.90;;;14.47;;
3293;SDS011;1659;51.470;6.770;2022-12-07T07:52:21;24.03;;;13.57;;
3293;SDS011;1659;51.470;6.770;2022-12-07T07:54:47;26.87;;;15.50;;
3293;SDS011;1659;51.470;6.770;2022-12-07T07:57:14;27.47;;;15.50;;
3293;SDS011;1659;51.470;6.770;2022-12-07T07:59:43;28.43;;;15.20;;
3293;SDS011;1659;51.470;6.770;2022-12-07T08:02:10;30.70;;;15.50;;
3293;SDS011;1659;51.470;6.770;2022-12-07T08:04:41;24.60;;;14.60;;
3293;SDS011;1659;51.470;6.770;2022-12-07T08:07:07;21.87;;;13.73;;
3293;SDS011;1659;51.470;6.770;2022-12-07T08:09:34;25.90;;;15.27;;
3293;SDS011;1659;51.470;6.770;2022-12-07T08:12:00;27.23;;;16.63;;
3293;SDS011;1659;51.470;6.770;2022-12-07T08:14:27;27.40;;;16.03;;
3293;SDS011;1659;51.470;6.770;2022-12-07T08:16:55;28.07;;;16.93;;
3293;SDS011;1659;51.470;6.770;2022-12-07T08:19:22;32.83;;;15.13;;
3293;SDS011;1659;51.470;6.770;2022-12-07T08:21:49;32.00;;;16.43;;
3293;SDS011;1659;51.470;6.770;2022-12-07T08:24:15;30.40;;;12.93;;
3293;SDS011;1659;51.470;6.770;2022-12-07T08:26:42;25.70;;;14.90;;
3293;SDS011;1659;51.470;6.770;2022-12-07T08:29:09;26.63;;;14.80;;
3293;SDS011;1659;51.470;6.770;2022-12-07T08:31:35;23.00;;;14.40;;
3293;SDS011;1659;51.470;6.770;2022-12-07T08:34:03;23.47;;;14.77;;
3293;SDS011;1659;51.470;6.770;2022-12-07T08:36:30;26.73;;;15.73;;
3293;SDS011;1659;51.470;6.770;2022-12-07T08:38:56;23.03;;;14.77;;
3293;SDS011;1659;51.470;6.770;2022-12-07T08:41:23;32.13;;;15.83;;
3293;SDS011;1659;51.470;6.770;2022-12-07T08:43:50;27.33;;;15.60;;
3293;SDS011;1659;51.470;6.770;2022-12-07T08:46:18;27.90;;;16.00;;
3293;SDS011;1659;51.470;6.770;2022-12-07T08:48:48;27.30;;;14.77;;
3293;SDS011;1659;51.470;6.770;2022-12-07T08:51:20;27.73;;;14.80;;
3293;SDS011;1659;51.470;6.770;2022-12-07T08:53:48;24.73;;;15.27;;
3293;SDS011;1659;51.470;6.770;2022-12-07T08:56:15;22.83;;;13.53;;
3293;SDS011;1659;51.470;6.770;2022-12-07T08:58:42;19.50;;;12.10;;
3293;SDS011;1659;51.470;6.770;2022-12-07T09:01:09;25.10;;;12.30;;
3293;SDS011;1659;51.470;6.770;2022-12-07T09:03:36;33.63;;;13.53;;
3293;SDS011;1659;51.470;6.770;2022-12-07T09:06:03;21.77;;;12.20;;
3293;SDS011;1659;51.470;6.770;2022-12-07T09:08:33;19.63;;;11.27;;
3293;SDS011;1659;51.470;6.770;2022-12-07T09:11:02;23.60;;;11.60;;
3293;SDS011;1659;51.470;6.770;2022-12-07T09:13:28;19.80;;;11.97;;
3293;SDS011;1659;51.470;6.770;2022-12-07T09:15:55;17.50;;;11.13;;
3293;SDS011;1659;51.470;6.770;2022-12-07T09:18:22;19.73;;;9.73;;
3293;SDS011;1659;51.470;6.770;2022-12-07T09:20:49;14.90;;;9.63;;
3293;SDS011;1659;51.470;6.770;2022-12-07T09:23:15;15.60;;;8.33;;
3293;SDS011;1659;51.470;6.770;2022-12-07T09:25:44;19.83;;;9.57;;
3293;SDS011;1659;51.470;6.770;2022-12-07T09:28:10;9.77;;;7.57;;
3293;SDS011;1659;51.470;6.770;2022-12-07T09:30:37;13.23;;;9.00;;
3293;SDS011;1659;51.470;6.770;2022-12-07T09:33:03;14.90;;;7.37;;
3293;SDS011;1659;51.470;6.770;2022-12-07T09:35:30;12.63;;;7.70;;
3293;SDS011;1659;51.470;6.770;2022-12-07T09:37:56;16.50;;;7.53;;
3293;SDS011;1659;51.470;6.770;2022-12-07T09:40:23;17.90;;;8.73;;
3293;SDS011;1659;51.470;6.770;2022-12-07T09:42:52;17.80;;;7.87;;
3293;SDS011;1659;51.470;6.770;2022-12-07T09:45:22;18.30;;;9.77;;
3293;SDS011;1659;51.470;6.770;2022-12-07T09:47:51;9.27;;;7.03;;
3293;SDS011;1659;51.470;6.770;2022-12-07T09:50:19;14.83;;;8.60;;
3293;SDS011;1659;51.470;6.770;2022-12-07T09:52:48;17.33;;;8.50;;
3293;SDS011;1659;51.470;6.770;2022-12-07T09:55:16;14.30;;;8.30;;
3293;SDS011;1659;51.470;6.770;2022-12-07T09:57:47;12.20;;;8.40;;
3293;SDS011;1659;51.470;6.770;2022-12-07T10:00:17;21.23;;;8.10;;
3293;SDS011;1659;51.470;6.770;2022-12-07T10:02:46;16.10;;;9.07;;
3293;SDS011;1659;51.470;6.770;2022-12-07T10:05:14;12.40;;;8.80;;
3293;SDS011;1659;51.470;6.770;2022-12-07T10:07:42;14.10;;;7.83;;
3293;SDS011;1659;51.470;6.770;2022-12-07T10:10:12;13.90;;;8.67;;
3293;SDS011;1659;51.470;6.770;2022-12-07T10:12:52;15.47;;;7.73;;
3293;SDS011;1659;51.470;6.770;2022-12-07T10:15:23;13.33;;;7.30;;
3293;SDS011;1659;51.470;6.770;2022-12-07T10:17:50;15.27;;;6.90;;
3293;SDS011;1659;51.470;6.770;2022-12-07T10:20:19;11.33;;;7.47;;
3293;SDS011;1659;51.470;6.770;2022-12-07T10:22:58;12.50;;;6.50;;
3293;SDS011;1659;51.470;6.770;2022-12-07T10:25:28;10.60;;;6.67;;
3293;SDS011;1659;51.470;6.770;2022-12-07T10:27:58;13.93;;;6.20;;
3293;SDS011;1659;51.470;6.770;2022-12-07T10:30:27;14.93;;;7.13;;
3293;SDS011;1659;51.470;6.770;2022-12-07T10:32:55;11.20;;;6.00;;
3293;SDS011;1659;51.470;6.770;2022-12-07T10:35:23;10.37;;;5.50;;
3293;SDS011;1659;51.470;6.770;2022-12-07T10:37:52;11.97;;;6.90;;
3293;SDS011;1659;51.470;6.770;2022-12-07T10:40:27;14.87;;;6.53;;
3293;SDS011;1659;51.470;6.770;2022-12-07T10:43:00;16.57;;;6.60;;
3293;SDS011;1659;51.470;6.770;2022-12-07T10:45:29;14.40;;;6.33;;
3293;SDS011;1659;51.470;6.770;2022-12-07T10:47:57;10.20;;;6.20;;
3293;SDS011;1659;51.470;6.770;2022-12-07T10:50:39;13.93;;;6.50;;
3293;SDS011;1659;51.470;6.770;2022-12-07T10:56:14;10.10;;;5.60;;
3293;SDS011;1659;51.470;6.770;2022-12-07T10:59:03;10.07;;;5.40;;
3293;SDS011;1659;51.470;6.770;2022-12-07T11:01:54;13.13;;;6.37;;
3293;SDS011;1659;51.470;6.770;2022-12-07T11:04:29;12.87;;;7.00;;
3293;SDS011;1659;51.470;6.770;2022-12-07T11:07:04;13.30;;;6.30;;
3293;SDS011;1659;51.470;6.770;2022-12-07T11:09:42;8.00;;;6.67;;
3293;SDS011;1659;51.470;6.770;2022-12-07T11:12:20;7.67;;;5.87;;
3293;SDS011;1659;51.470;6.770;2022-12-07T11:14:59;17.73;;;7.20;;
3293;SDS011;1659;51.470;6.770;2022-12-07T11:17:34;15.83;;;6.60;;
3293;SDS011;1659;51.470;6.770;2022-12-07T11:20:12;11.70;;;6.53;;
3293;SDS011;1659;51.470;6.770;2022-12-07T11:22:50;11.17;;;7.13;;
3293;SDS011;1659;51.470;6.770;2022-12-07T11:25:26;13.70;;;5.90;;
3293;SDS011;1659;51.470;6.770;2022-12-07T11:28:03;7.63;;;6.20;;
3293;SDS011;1659;51.470;6.770;2022-12-07T11:30:46;9.57;;;6.33;;
3293;SDS011;1659;51.470;6.770;2022-12-07T11:33:25;18.93;;;6.53;;
3293;SDS011;1659;51.470;6.770;2022-12-07T11:35:58;9.57;;;6.40;;
3293;SDS011;1659;51.470;6.770;2022-12-07T11:38:32;10.07;;;6.50;;
3293;SDS011;1659;51.470;6.770;2022-12-07T11:41:04;8.47;;;6.10;;
3293;SDS011;1659;51.470;6.770;2022-12-07T11:43:51;14.17;;;7.60;;
3293;SDS011;1659;51.470;6.770;2022-12-07T11:46:22;12.10;;;6.23;;
3293;SDS011;1659;51.470;6.770;2022-12-07T11:48:55;9.30;;;6.63;;
3293;SDS011;1659;51.470;6.770;2022-12-07T11:51:28;12.53;;;7.20;;
3293;SDS011;1659;51.470;6.770;2022-12-07T11:54:00;10.07;;;5.70;;
3293;SDS011;1659;51.470;6.770;2022-12-07T11:56:29;13.47;;;6.73;;
3293;SDS011;1659;51.470;6.770;2022-12-07T11:59:02;18.10;;;6.17;;
3293;SDS011;1659;51.470;6.770;2022-12-07T12:01:38;8.40;;;6.13;;
3293;SDS011;1659;51.470;6.770;2022-12-07T12:04:18;17.10;;;7.90;;
3293;SDS011;1659;51.470;6.770;2022-12-07T12:06:58;11.33;;;7.17;;
3293;SDS011;1659;51.470;6.770;2022-12-07T12:09:26;13.87;;;7.20;;
3293;SDS011;1659;51.470;6.770;2022-12-07T12:12:02;14.70;;;8.17;;
3293;SDS011;1659;51.470;6.770;2022-12-07T12:14:44;13.43;;;7.50;;
3293;SDS011;1659;51.470;6.770;2022-12-07T12:17:39;11.97;;;6.70;;
3293;SDS011;1659;51.470;6.770;2022-12-07T12:20:18;12.17;;;6.10;;
3293;SDS011;1659;51.470;6.770;2022-12-07T12:22:50;9.50;;;6.93;;
3293;SDS011;1659;51.470;6.770;2022-12-07T12:25:22;9.23;;;6.37;;
3293;SDS011;1659;51.470;6.770;2022-12-07T12:27:52;11.57;;;7.50;;
3293;SDS011;1659;51.470;6.770;2022-12-07T12:30:25;18.33;;;7.40;;
3293;SDS011;1659;51.470;6.770;2022-12-07T12:33:01;15.63;;;8.40;;
3293;SDS011;1659;51.470;6.770;2022-12-07T12:35:32;9.50;;;7.03;;
3293;SDS011;1659;51.470;6.770;2022-12-07T12:40:58;12.07;;;7.10;;
3293;SDS011;1659;51.470;6.770;2022-12-07T12:55:15;12.80;;;6.70;;
3293;SDS011;1659;51.470;6.770;2022-12-07T12:57:46;9.90;;;6.60;;
3293;SDS011;1659;51.470;6.770;2022-12-07T13:00:17;12.90;;;5.70;;
3293;SDS011;1659;51.470;6.770;2022-12-07T13:02:48;10.80;;;5.40;;
3293;SDS011;1659;51.470;6.770;2022-12-07T13:05:18;15.43;;;7.00;;
3293;SDS011;1659;51.470;6.770;2022-12-07T13:07:51;9.63;;;5.77;;
3293;SDS011;1659;51.470;6.770;2022-12-07T13:10:24;8.53;;;5.40;;
3293;SDS011;1659;51.470;6.770;2022-12-07T13:13:00;11.40;;;6.13;;
3293;SDS011;1659;51.470;6.770;2022-12-07T13:15:33;9.90;;;6.03;;
3293;SDS011;1659;51.470;6.770;2022-12-07T13:18:03;14.73;;;6.90;;
3293;SDS011;1659;51.470;6.770;2022-12-07T13:20:54;7.80;;;6.07;;
3293;SDS011;1659;51.470;6.770;2022-12-07T13:23:23;10.10;;;6.83;;
3293;SDS011;1659;51.470;6.770;2022-12-07T13:25:56;12.23;;;6.33;;
3293;SDS011;1659;51.470;6.770;2022-12-07T13:28:32;9.37;;;6.57;;
3293;SDS011;1659;51.470;6.770;2022-12-07T13:31:09;12.07;;;6.63;;
3293;SDS011;1659;51.470;6.770;2022-12-07T13:33:42;9.00;;;6.87;;
3293;SDS011;1659;51.470;6.770;2022-12-07T13:36:12;13.77;;;5.80;;
3293;SDS011;1659;51.470;6.770;2022-12-07T13:38:48;10.43;;;6.17;;
3293;SDS011;1659;51.470;6.770;2022-12-07T13:41:24;7.60;;;5.70;;
3293;SDS011;1659;51.470;6.770;2022-12-07T13:43:53;10.00;;;6.33;;
3293;SDS011;1659;51.470;6.770;2022-12-07T13:46:26;11.63;;;6.50;;
3293;SDS011;1659;51.470;6.770;2022-12-07T13:49:03;9.07;;;6.17;;
3293;SDS011;1659;51.470;6.770;2022-12-07T13:51:43;7.13;;;5.37;;
3293;SDS011;1659;51.470;6.770;2022-12-07T13:54:10;9.23;;;6.37;;
3293;SDS011;1659;51.470;6.770;2022-12-07T13:56:40;8.73;;;6.10;;
3293;SDS011;1659;51.470;6.770;2022-12-07T13:59:10;9.20;;;5.10;;
3293;SDS011;1659;51.470;6.770;2022-12-07T14:01:41;8.27;;;5.83;;
3293;SDS011;1659;51.470;6.770;2022-12-07T14:04:18;8.10;;;6.10;;
3293;SDS011;1659;51.470;6.770;2022-12-07T14:06:55;11.60;;;5.37;;
3293;SDS011;1659;51.470;6.770;2022-12-07T14:09:22;55.43;;;25.87;;
3293;SDS011;1659;51.470;6.770;2022-12-07T14:11:52;25.90;;;12.00;;
3293;SDS011;1659;51.470;6.770;2022-12-07T14:14:21;18.60;;;10.50;;
3293;SDS011;1659;51.470;6.770;2022-12-07T14:16:55;9.27;;;5.93;;
3293;SDS011;1659;51.470;6.770;2022-12-07T14:22:18;25.80;;;13.00;;
3293;SDS011;1659;51.470;6.770;2022-12-07T14:24:47;9.90;;;4.83;;
3293;SDS011;1659;51.470;6.770;2022-12-07T14:27:20;7.30;;;4.90;;
3293;SDS011;1659;51.470;6.770;2022-12-07T14:29:47;9.37;;;4.60;;
3293;SDS011;1659;51.470;6.770;2022-12-07T14:32:18;15.07;;;4.30;;
3293;SDS011;1659;51.470;6.770;2022-12-07T14:34:55;6.80;;;5.30;;
3293;SDS011;1659;51.470;6.770;2022-12-07T14:37:22;13.47;;;4.37;;
3293;SDS011;1659;51.470;6.770;2022-12-07T14:39:49;11.67;;;4.60;;
3293;SDS011;1659;51.470;6.770;2022-12-07T14:42:16;14.13;;;4.80;;
3293;SDS011;1659;51.470;6.770;2022-12-07T14:44:44;6.40;;;5.07;;
3293;SDS011;1659;51.470;6.770;2022-12-07T14:47:11;13.83;;;5.43;;
3293;SDS011;1659;51.470;6.770;2022-12-07T14:49:37;6.53;;;4.73;;
3293;SDS011;1659;51.470;6.770;2022-12-07T14:52:04;4.90;;;4.30;;
3293;SDS011;1659;51.470;6.770;2022-12-07T14:54:32;10.00;;;4.90;;
3293;SDS011;1659;51.470;6.770;2022-12-07T14:56:59;10.10;;;5.53;;
3293;SDS011;1659;51.470;6.770;2022-12-07T14:59:25;11.67;;;4.40;;
3293;SDS011;1659;51.470;6.770;2022-12-07T15:01:53;12.17;;;5.10;;
3293;SDS011;1659;51.470;6.770;2022-12-07T15:04:20;6.90;;;4.67;;
3293;SDS011;1659;51.470;6.770;2022-12-07T15:06:54;8.43;;;4.27;;
3293;SDS011;1659;51.470;6.770;2022-12-07T15:09:22;9.97;;;5.70;;
3293;SDS011;1659;51.470;6.770;2022-12-07T15:11:48;11.83;;;5.63;;
3293;SDS011;1659;51.470;6.770;2022-12-07T15:14:15;10.00;;;5.47;;
3293;SDS011;1659;51.470;6.770;2022-12-07T15:16:42;9.57;;;6.23;;
3293;SDS011;1659;51.470;6.770;2022-12-07T15:19:14;9.27;;;5.70;;
3293;SDS011;1659;51.470;6.770;2022-12-07T15:21:41;14.30;;;5.87;;
3293;SDS011;1659;51.470;6.770;2022-12-07T15:24:08;20.77;;;7.10;;
3293;SDS011;1659;51.470;6.770;2022-12-07T15:26:36;8.53;;;6.13;;
3293;SDS011;1659;51.470;6.770;2022-12-07T15:29:03;11.80;;;6.70;;
3293;SDS011;1659;51.470;6.770;2022-12-07T15:31:31;15.20;;;6.70;;